Time;durP1;ratioP1;P1;durP2;ratioP2;P2;SDS_P1;SDS_P2;PMS_P1;PMS_P2;Temp;Humidity;BMP_temperature;BMP_pressure;BME280_temperature;BME280_humidity;BME280_pressure;Samples;Min_cycle;Max_cycle;Signal;HPM_P1;HPM_P2
2022/05/21 00:00:14;;;;;;;35.08;22.70;;;12.20;99.90;;;;;;5091696;28;20059;-63
2022/05/21 00:02:41;;;;;;;105.38;73.35;;;12.20;99.90;;;;;;5092933;28;20050;-65
2022/05/21 00:05:09;;;;;;;31.95;15.57;;;12.20;99.90;;;;;;5092855;28;20047;-64
2022/05/21 00:07:35;;;;;;;20.85;11.43;;;12.20;99.90;;;;;;5075581;28;20047;-64
2022/05/21 00:10:03;;;;;;;21.63;6.50;;;12.10;99.90;;;;;;5093180;28;20044;-64
2022/05/21 00:12:30;;;;;;;9.77;3.70;;;12.10;99.90;;;;;;5076499;28;20050;-64
2022/05/21 00:14:57;;;;;;;8.93;2.65;;;12.10;99.90;;;;;;5095183;28;20134;-64
2022/05/21 00:17:24;;;;;;;13.50;3.33;;;12.10;99.90;;;;;;5097260;28;20351;-64
2022/05/21 00:19:51;;;;;;;10.05;3.78;;;12.00;99.90;;;;;;5096682;28;20467;-64
2022/05/21 00:22:18;;;;;;;13.68;3.30;;;12.00;99.90;;;;;;5095545;28;20044;-64
2022/05/21 00:24:45;;;;;;;12.50;3.63;;;11.90;99.90;;;;;;5096712;28;20040;-64
2022/05/21 00:27:12;;;;;;;10.40;3.50;;;11.90;99.90;;;;;;5096419;28;20044;-64
2022/05/21 00:29:38;;;;;;;12.77;3.95;;;11.90;99.90;;;;;;5096586;28;20081;-64
2022/05/21 00:32:06;;;;;;;11.85;3.72;;;11.90;99.90;;;;;;5096307;28;20055;-64
2022/05/21 00:34:34;;;;;;;14.65;3.78;;;11.90;99.90;;;;;;5061704;28;20059;-64
2022/05/21 00:37:02;;;;;;;13.57;4.47;;;11.80;99.90;;;;;;5096351;28;20062;-64
2022/05/21 00:39:29;;;;;;;15.85;4.07;;;11.80;99.90;;;;;;5094883;28;20749;-64
2022/05/21 00:42:02;;;;;;;13.82;4.32;;;11.80;99.90;;;;;;5095143;28;20487;-64
2022/05/21 00:44:29;;;;;;;14.40;3.92;;;11.80;99.90;;;;;;5078919;28;20090;-64
2022/05/21 00:46:56;;;;;;;14.70;3.88;;;11.80;99.90;;;;;;5096235;28;20036;-64
2022/05/21 00:49:26;;;;;;;11.38;3.75;;;11.80;99.90;;;;;;5096153;28;20415;-64
2022/05/21 00:51:57;;;;;;;;;;;11.80;99.90;;;;;;5097039;28;20044;-64
2022/05/21 00:54:28;;;;;;;16.40;3.20;;;11.70;99.90;;;;;;5094595;28;19922;-64
2022/05/21 00:57:01;;;;;;;9.55;4.35;;;11.70;99.90;;;;;;5095831;28;20355;-64
2022/05/21 01:02:28;;;;;;;12.73;3.85;;;11.70;99.90;;;;;;5095512;28;20093;-64
2022/05/21 01:04:56;;;;;;;12.38;3.22;;;11.60;99.90;;;;;;5079108;28;20054;-64
2022/05/21 01:07:25;;;;;;;10.35;3.05;;;11.60;99.90;;;;;;5094631;28;20138;-64
2022/05/21 01:09:53;;;;;;;10.68;3.40;;;11.60;99.90;;;;;;5094617;28;20047;-64
2022/05/21 01:12:24;;;;;;;10.40;3.30;;;11.60;99.90;;;;;;5077987;28;20036;-64
2022/05/21 01:14:52;;;;;;;9.82;3.33;;;11.60;99.90;;;;;;5077805;28;20099;-64
2022/05/21 01:17:19;;;;;;;9.23;3.83;;;11.70;99.90;;;;;;5077938;28;20469;-64
2022/05/21 01:19:57;;;;;;;11.25;4.55;;;11.70;99.90;;;;;;5094099;28;20059;-64
2022/05/21 01:22:26;;;;;;;8.23;3.38;;;11.60;99.90;;;;;;5096083;28;20040;-64
2022/05/21 01:24:53;;;;;;;10.25;3.13;;;11.60;99.90;;;;;;5093030;28;20047;-64
2022/05/21 01:27:21;;;;;;;20.50;3.05;;;11.60;99.90;;;;;;5095405;28;20058;-64
2022/05/21 01:29:48;;;;;;;7.22;2.45;;;11.60;99.90;;;;;;5078471;28;20063;-64
2022/05/21 01:32:16;;;;;;;13.00;3.80;;;11.60;99.90;;;;;;5077869;28;20494;-64
2022/05/21 01:34:43;;;;;;;12.52;3.30;;;11.60;99.90;;;;;;5093948;28;20047;-64
2022/05/21 01:37:10;;;;;;;16.35;3.17;;;11.60;99.90;;;;;;5094817;28;20040;-64
2022/05/21 01:39:37;;;;;;;16.17;3.47;;;11.60;99.90;;;;;;5077548;28;20044;-64
2022/05/21 01:42:05;;;;;;;12.00;2.55;;;11.60;99.90;;;;;;5095164;28;20036;-64
2022/05/21 01:44:38;;;;;;;8.70;2.63;;;11.60;99.90;;;;;;5095042;28;20050;-64
2022/05/21 01:47:13;;;;;;;13.88;3.65;;;11.50;99.90;;;;;;5094892;28;20063;-64
2022/05/21 01:49:40;;;;;;;9.73;3.35;;;11.50;99.90;;;;;;5095039;28;20040;-64
2022/05/21 01:52:08;;;;;;;9.88;2.70;;;11.50;99.90;;;;;;5094638;28;20051;-64
2022/05/21 01:54:35;;;;;;;12.23;3.15;;;11.50;99.90;;;;;;5077754;28;20048;-64
2022/05/21 01:57:03;;;;;;;8.02;2.95;;;11.50;99.90;;;;;;5076837;28;20047;-64
2022/05/21 01:59:30;;;;;;;9.88;2.78;;;11.40;99.90;;;;;;5093298;28;20044;-64
2022/05/21 02:01:57;;;;;;;8.02;2.50;;;11.40;99.90;;;;;;5094771;28;20481;-64
2022/05/21 02:04:24;;;;;;;6.95;2.70;;;11.40;99.90;;;;;;5076808;28;20402;-64
2022/05/21 02:06:51;;;;;;;12.63;3.25;;;11.30;99.90;;;;;;5094252;28;20056;-64
2022/05/21 02:09:18;;;;;;;9.95;2.75;;;11.30;99.90;;;;;;5093097;28;20051;-64
2022/05/21 02:11:45;;;;;;;9.80;2.53;;;11.30;99.90;;;;;;5095356;28;20375;-64
2022/05/21 02:14:12;;;;;;;7.10;2.45;;;11.20;99.90;;;;;;5092997;28;20044;-64
2022/05/21 02:16:38;;;;;;;7.78;2.63;;;11.20;99.90;;;;;;5094069;28;20044;-64
2022/05/21 02:19:06;;;;;;;8.50;2.60;;;11.20;99.90;;;;;;5094036;28;20075;-64
2022/05/21 02:21:34;;;;;;;10.50;3.25;;;11.20;99.90;;;;;;5093253;28;20036;-64
2022/05/21 02:24:01;;;;;;;18.48;3.75;;;11.10;99.90;;;;;;5077143;28;20040;-64
2022/05/21 02:26:28;;;;;;;10.15;2.88;;;11.10;99.90;;;;;;5093120;28;20043;-64
2022/05/21 02:28:55;;;;;;;10.13;2.60;;;11.10;99.90;;;;;;5094007;28;20043;-64
2022/05/21 02:31:22;;;;;;;8.13;2.75;;;11.00;99.90;;;;;;5092585;28;20044;-64
2022/05/21 02:33:49;;;;;;;10.98;3.35;;;11.00;99.90;;;;;;5092992;28;20043;-64
2022/05/21 02:36:16;;;;;;;10.50;3.45;;;11.00;99.90;;;;;;5093872;28;20054;-64
2022/05/21 02:41:28;;;;;;;10.57;3.83;;;10.90;99.90;;;;;;5093774;28;20040;-64
2022/05/21 02:43:55;;;;;;;9.85;2.95;;;10.90;99.90;;;;;;5093728;28;20046;-64
2022/05/21 02:46:22;;;;;;;10.13;2.50;;;10.90;99.90;;;;;;5093643;28;20044;-64
2022/05/21 02:48:49;;;;;;;10.95;3.38;;;10.90;99.90;;;;;;5092422;28;20451;-63
2022/05/21 02:51:16;;;;;;;380.45;339.10;;;10.80;99.90;;;;;;5093966;28;20036;-55
2022/05/21 02:53:43;;;;;;;37.47;26.73;;;10.90;99.90;;;;;;5092678;28;20043;-64
2022/05/21 02:56:13;;;;;;;14.13;9.23;;;10.90;99.90;;;;;;5094067;28;20044;-64
2022/05/21 02:58:40;;;;;;;12.48;4.85;;;10.90;99.90;;;;;;5092450;28;20477;-64
2022/05/21 03:01:07;;;;;;;9.80;4.28;;;10.90;99.90;;;;;;5092620;28;20036;-64
2022/05/21 03:03:34;;;;;;;8.55;2.63;;;10.90;99.90;;;;;;5093658;28;20080;-64
2022/05/21 03:06:01;;;;;;;9.35;3.17;;;10.80;99.90;;;;;;5094488;28;20047;-64
2022/05/21 03:11:13;;;;;;;10.60;3.17;;;10.80;99.90;;;;;;5094538;28;20043;-63
2022/05/21 03:13:40;;;;;;;9.57;3.35;;;10.80;99.90;;;;;;5075515;28;20040;-63
2022/05/21 03:16:07;;;;;;;10.80;3.22;;;10.80;99.90;;;;;;5093812;28;20036;-64
2022/05/21 03:18:35;;;;;;;11.40;2.70;;;10.80;99.90;;;;;;5092302;28;20048;-64
2022/05/21 03:21:02;;;;;;;10.27;2.95;;;10.80;99.90;;;;;;5092871;28;20040;-64
2022/05/21 03:23:29;;;;;;;10.32;3.15;;;10.70;99.90;;;;;;5094089;28;20048;-64
2022/05/21 03:25:56;;;;;;;7.72;2.60;;;10.70;99.90;;;;;;5093817;28;20044;-63
2022/05/21 03:28:23;;;;;;;14.38;3.78;;;10.70;99.90;;;;;;5093247;28;20044;-64
2022/05/21 03:30:50;;;;;;;11.93;3.08;;;10.70;99.90;;;;;;5075651;28;20063;-64
2022/05/21 03:33:17;;;;;;;10.25;3.17;;;10.70;99.90;;;;;;5092278;28;20048;-64
2022/05/21 03:35:44;;;;;;;13.85;2.60;;;10.70;99.90;;;;;;5075452;28;20040;-64
2022/05/21 03:38:11;;;;;;;10.52;2.83;;;10.80;99.90;;;;;;5076520;28;20047;-63
2022/05/21 03:40:38;;;;;;;11.60;2.55;;;10.80;99.90;;;;;;5092151;28;20428;-63
2022/05/21 03:43:05;;;;;;;6.50;2.83;;;10.80;99.90;;;;;;5092980;28;20051;-63
2022/05/21 03:45:32;;;;;;;9.10;2.60;;;10.80;99.90;;;;;;5091845;28;20093;-64
2022/05/21 03:47:59;;;;;;;12.93;5.18;;;10.80;99.90;;;;;;5094069;28;20487;-63
2022/05/21 03:50:27;;;;;;;9.30;2.90;;;10.80;99.90;;;;;;5096561;28;20455;-64
2022/05/21 03:52:54;;;;;;;12.35;3.15;;;10.80;99.90;;;;;;5095814;28;20036;-64
2022/05/21 03:55:21;;;;;;;12.35;3.10;;;10.80;99.90;;;;;;5096892;28;20047;-64
2022/05/21 03:57:47;;;;;;;13.95;4.38;;;10.80;99.90;;;;;;5095993;28;20051;-64
2022/05/21 04:00:15;;;;;;;13.20;3.03;;;10.80;99.90;;;;;;5097197;28;20376;-64
2022/05/21 04:02:42;;;;;;;12.02;2.50;;;10.80;99.90;;;;;;5095602;28;20044;-64
2022/05/21 04:05:09;;;;;;;11.05;2.90;;;10.80;99.90;;;;;;5097025;28;20127;-63
2022/05/21 04:07:37;;;;;;;6.80;2.88;;;10.80;99.90;;;;;;5095502;28;20050;-63
2022/05/21 04:10:04;;;;;;;15.65;4.13;;;10.80;99.90;;;;;;5096276;28;20036;-64
2022/05/21 04:12:31;;;;;;;17.80;4.25;;;10.80;99.90;;;;;;5095800;28;20040;-64
2022/05/21 04:14:59;;;;;;;10.38;3.17;;;10.80;99.90;;;;;;5095320;28;20181;-64
2022/05/21 04:17:25;;;;;;;18.90;4.68;;;10.90;99.90;;;;;;5096854;28;20379;-64
2022/05/21 04:19:53;;;;;;;11.02;3.70;;;10.90;99.90;;;;;;5096702;28;20468;-63
2022/05/21 04:22:20;;;;;;;9.70;2.80;;;10.90;99.90;;;;;;5095187;28;20050;-63
2022/05/21 04:24:47;;;;;;;8.88;2.50;;;10.90;99.90;;;;;;5097445;28;20040;-64
2022/05/21 04:27:14;;;;;;;11.18;3.20;;;11.00;99.90;;;;;;5096613;28;20051;-64
2022/05/21 04:29:41;;;;;;;9.63;2.80;;;11.00;99.90;;;;;;5095591;28;20051;-64
2022/05/21 04:32:08;;;;;;;11.90;2.72;;;11.10;99.90;;;;;;5096379;28;20044;-64
2022/05/21 04:34:35;;;;;;;8.18;2.97;;;11.20;99.90;;;;;;5095217;28;20051;-64
2022/05/21 04:37:02;;;;;;;9.65;3.20;;;11.20;99.90;;;;;;5096494;28;20044;-64
2022/05/21 04:39:29;;;;;;;14.55;3.25;;;11.30;99.90;;;;;;5094889;28;20487;-64
2022/05/21 04:41:56;;;;;;;16.33;3.38;;;11.40;99.90;;;;;;5096327;28;20071;-64
2022/05/21 04:44:25;;;;;;;8.48;3.10;;;11.40;99.90;;;;;;5094730;28;20475;-64
2022/05/21 04:46:52;;;;;;;;;;;11.50;99.90;;;;;;5095176;28;20044;-64
2022/05/21 04:49:19;;;;;;;14.35;3.00;;;11.50;99.90;;;;;;5096694;28;20003;-64
2022/05/21 04:51:46;;;;;;;17.15;3.47;;;11.60;99.90;;;;;;5095912;28;20499;-64
2022/05/21 04:54:13;;;;;;;17.17;3.38;;;11.60;99.90;;;;;;5095403;28;20451;-64
2022/05/21 04:56:39;;;;;;;15.07;4.10;;;11.60;99.90;;;;;;5095498;28;20048;-64
2022/05/21 04:59:10;;;;;;;16.33;5.03;;;11.60;99.90;;;;;;5094501;28;20468;-64
2022/05/21 05:01:37;;;;;;;16.38;3.70;;;11.60;99.90;;;;;;5078639;28;20125;-64
2022/05/21 05:04:05;;;;;;;10.05;3.47;;;11.70;99.90;;;;;;5095516;28;20048;-64
2022/05/21 05:06:32;;;;;;;14.38;3.53;;;11.80;99.90;;;;;;5095530;28;20051;-64
2022/05/21 05:08:59;;;;;;;13.73;3.63;;;11.80;99.90;;;;;;5095438;28;20051;-64
2022/05/21 05:11:26;;;;;;;11.45;2.90;;;11.90;99.90;;;;;;5061319;28;20040;-64
2022/05/21 05:13:53;;;;;;;10.75;3.60;;;12.00;99.90;;;;;;5094589;28;20044;-64
2022/05/21 05:16:20;;;;;;;10.35;3.17;;;12.00;99.90;;;;;;5095887;28;20055;-64
2022/05/21 05:18:47;;;;;;;12.23;2.78;;;12.10;99.90;;;;;;5095735;28;20047;-64
2022/05/21 05:21:13;;;;;;;9.88;2.83;;;12.10;99.90;;;;;;5095554;28;20055;-64
2022/05/21 05:23:40;;;;;;;10.30;3.42;;;12.10;99.90;;;;;;5096353;28;20052;-64
2022/05/21 05:26:07;;;;;;;11.80;3.55;;;12.20;99.90;;;;;;5093961;28;20040;-64
2022/05/21 05:28:34;;;;;;;12.15;3.15;;;12.20;99.90;;;;;;5095869;28;20047;-64
2022/05/21 05:31:01;;;;;;;10.10;3.42;;;12.20;99.90;;;;;;5095340;28;20047;-64
2022/05/21 05:33:30;;;;;;;10.85;2.90;;;12.20;99.90;;;;;;5093663;28;20483;-64
2022/05/21 05:35:56;;;;;;;13.65;3.65;;;12.20;99.90;;;;;;5094895;28;20051;-64
2022/05/21 05:38:23;;;;;;;10.05;3.72;;;12.30;99.90;;;;;;5094997;28;20048;-64
2022/05/21 05:40:51;;;;;;;15.82;4.13;;;12.30;99.90;;;;;;5094867;28;20047;-64
2022/05/21 05:43:19;;;;;;;10.63;3.95;;;12.30;99.90;;;;;;5094480;28;20040;-64
2022/05/21 05:45:51;;;;;;;7.78;3.10;;;12.40;99.90;;;;;;5094413;28;20123;-64
2022/05/21 05:48:19;;;;;;;9.20;3.00;;;12.40;99.90;;;;;;5094488;28;20040;-64
2022/05/21 05:50:53;;;;;;;13.93;4.47;;;12.40;99.90;;;;;;5093754;28;20043;-64
2022/05/21 05:53:21;;;;;;;17.67;4.30;;;12.40;99.90;;;;;;5093466;28;20040;-64
2022/05/21 05:55:48;;;;;;;13.43;3.80;;;12.50;99.90;;;;;;5094627;28;20450;-64
2022/05/21 06:01:01;;;;;;;15.38;4.47;;;12.50;99.90;;;;;;5094703;28;20487;-64
2022/05/21 06:03:28;;;;;;;18.35;3.72;;;12.60;99.90;;;;;;5094078;28;20040;-64
2022/05/21 06:05:55;;;;;;;11.70;3.72;;;12.70;99.90;;;;;;5094423;28;20051;-64
2022/05/21 06:08:22;;;;;;;11.32;3.55;;;12.80;99.90;;;;;;5093373;28;20047;-64
2022/05/21 06:10:49;;;;;;;10.30;3.58;;;13.00;99.90;;;;;;5092980;28;20471;-64
2022/05/21 06:13:16;;;;;;;13.60;4.25;;;13.20;99.90;;;;;;5095389;28;20039;-64
2022/05/21 06:15:43;;;;;;;11.90;3.33;;;13.30;99.90;;;;;;5094585;28;20352;-64
2022/05/21 06:18:12;;;;;;;9.32;3.58;;;13.50;99.90;;;;;;5076196;28;20046;-64
2022/05/21 06:20:39;;;;;;;13.38;3.40;;;13.60;99.90;;;;;;5093323;28;20040;-64
2022/05/21 06:23:06;;;;;;;13.63;3.45;;;13.70;99.90;;;;;;5093259;28;20044;-64
2022/05/21 06:25:33;;;;;;;10.63;4.40;;;13.90;99.90;;;;;;5093900;28;20359;-64
2022/05/21 06:28:00;;;;;;;10.10;3.10;;;14.00;99.90;;;;;;5093993;28;20050;-64
2022/05/21 06:30:28;;;;;;;14.15;4.07;;;14.10;99.90;;;;;;5076357;28;20062;-64
2022/05/21 06:32:55;;;;;;;13.57;4.30;;;14.20;99.90;;;;;;5093650;28;20051;-64
2022/05/21 06:35:22;;;;;;;11.50;3.47;;;14.10;99.90;;;;;;5094494;28;20106;-64
2022/05/21 06:37:49;;;;;;;12.63;3.75;;;14.20;99.90;;;;;;5094798;28;20040;-64
2022/05/21 06:40:18;;;;;;;18.08;3.83;;;14.30;99.90;;;;;;5092994;28;20061;-64
2022/05/21 06:42:46;;;;;;;12.60;3.50;;;14.30;99.90;;;;;;5076417;28;20118;-64
2022/05/21 06:45:13;;;;;;;15.40;3.93;;;14.40;99.90;;;;;;5093854;28;20046;-64
2022/05/21 06:47:40;;;;;;;15.77;3.95;;;14.50;99.90;;;;;;5092500;28;20047;-64
2022/05/21 06:50:07;;;;;;;10.23;3.15;;;14.60;99.90;;;;;;5094790;28;20036;-64
2022/05/21 06:52:36;;;;;;;17.73;4.32;;;14.60;99.90;;;;;;5093870;28;20475;-64
2022/05/21 06:55:09;;;;;;;10.68;2.95;;;14.70;99.90;;;;;;5093687;28;20123;-64
2022/05/21 06:57:36;;;;;;;17.42;4.72;;;14.80;99.90;;;;;;5093431;28;20040;-64
2022/05/21 07:00:05;;;;;;;20.88;5.70;;;14.80;99.90;;;;;;5075979;28;20067;-64
2022/05/21 07:02:31;;;;;;;13.50;2.90;;;14.90;99.90;;;;;;5092327;28;20043;-64
2022/05/21 07:07:45;;;;;;;9.02;3.45;;;15.00;99.90;;;;;;5093752;28;20051;-64
2022/05/21 07:10:17;;;;;;;11.50;3.25;;;15.10;99.90;;;;;;5094518;28;20122;-64
2022/05/21 07:12:43;;;;;;;10.02;3.42;;;15.20;99.90;;;;;;5092285;28;20050;-64
2022/05/21 07:15:11;;;;;;;15.48;4.32;;;15.30;99.90;;;;;;5092455;28;20044;-64
2022/05/21 07:17:37;;;;;;;13.75;3.22;;;15.40;99.90;;;;;;5092317;28;20131;-64
2022/05/21 07:20:06;;;;;;;11.98;3.60;;;15.40;99.90;;;;;;5076294;28;20142;-64
2022/05/21 07:22:33;;;;;;;12.95;3.40;;;15.50;99.90;;;;;;5093762;28;20055;-64
2022/05/21 07:25:02;;;;;;;11.40;3.15;;;15.50;99.90;;;;;;5098317;28;20097;-64
2022/05/21 07:27:29;;;;;;;15.43;4.43;;;15.40;99.90;;;;;;5096246;28;20047;-64
2022/05/21 07:29:56;;;;;;;16.48;4.32;;;15.40;99.90;;;;;;5096708;28;20486;-64
2022/05/21 07:32:24;;;;;;;12.38;3.58;;;15.50;99.90;;;;;;5098094;28;20051;-64
2022/05/21 07:35:03;;;;;;;13.52;4.35;;;15.50;99.90;;;;;;5097017;28;20051;-64
2022/05/21 07:37:30;;;;;;;;;;;15.60;99.90;;;;;;5079905;28;20040;-64
2022/05/21 07:39:57;;;;;;;19.20;4.80;;;15.60;99.90;;;;;;5098304;28;20244;-64
2022/05/21 07:42:24;;;;;;;13.50;4.85;;;15.60;99.90;;;;;;5097134;28;20051;-64
2022/05/21 07:44:51;;;;;;;13.77;3.65;;;15.60;99.90;;;;;;5097084;28;20051;-64
2022/05/21 07:47:22;;;;;;;12.05;4.20;;;15.50;99.90;;;;;;5097017;28;20367;-64
2022/05/21 07:49:56;;;;;;;14.75;3.83;;;15.50;99.90;;;;;;5097934;28;20112;-64
2022/05/21 07:52:26;;;;;;;14.77;4.90;;;15.50;99.90;;;;;;5096691;28;20047;-64
2022/05/21 07:54:54;;;;;;;16.13;4.30;;;15.60;99.90;;;;;;5095776;28;20135;-64
2022/05/21 07:57:20;;;;;;;16.00;6.35;;;15.60;99.90;;;;;;5079202;28;20055;-64
2022/05/21 07:59:47;;;;;;;13.00;5.68;;;15.70;99.90;;;;;;5095596;28;20498;-64
2022/05/21 08:02:15;;;;;;;14.57;4.30;;;15.80;99.90;;;;;;5097882;28;20036;-64
2022/05/21 08:04:43;;;;;;;15.07;4.82;;;15.90;99.90;;;;;;5095849;28;20141;-64
2022/05/21 08:07:09;;;;;;;11.02;3.92;;;16.10;99.90;;;;;;5063163;28;20051;-64
2022/05/21 08:09:37;;;;;;;13.30;3.90;;;16.20;99.90;;;;;;5096203;28;20048;-64
2022/05/21 08:12:04;;;;;;;12.10;3.78;;;16.40;99.90;;;;;;5096386;28;20491;-65
2022/05/21 08:14:32;;;;;;;12.57;4.35;;;16.50;99.90;;;;;;5095905;28;20066;-65
2022/05/21 08:16:59;;;;;;;10.20;3.85;;;16.60;99.90;;;;;;5095452;28;20376;-65
2022/05/21 08:19:25;;;;;;;15.80;5.00;;;16.60;99.90;;;;;;5095322;28;20040;-64
2022/05/21 08:21:52;;;;;;;13.68;5.03;;;16.70;99.90;;;;;;5096269;28;20468;-64
2022/05/21 08:27:05;;;;;;;17.33;12.65;;;17.00;99.90;;;;;;5096223;28;20036;-63
2022/05/21 08:29:33;;;;;;;12.73;5.00;;;17.20;99.90;;;;;;5095994;28;20052;-65
2022/05/21 08:32:01;;;;;;;9.30;3.00;;;17.30;99.90;;;;;;5096206;28;20383;-63
2022/05/21 08:34:28;;;;;;;13.70;4.35;;;17.20;99.90;;;;;;5095494;28;20599;-63
2022/05/21 08:36:55;;;;;;;10.98;3.33;;;17.20;99.90;;;;;;5094713;28;20079;-64
2022/05/21 08:39:22;;;;;;;11.70;4.35;;;17.40;99.90;;;;;;5095966;28;20040;-63
2022/05/21 08:41:56;;;;;;;13.43;5.25;;;17.40;99.90;;;;;;5096001;28;20059;-63
2022/05/21 08:44:37;;;;;;;11.10;4.22;;;17.50;99.90;;;;;;5079555;28;20127;-63
2022/05/21 08:47:18;;;;;;;13.90;4.55;;;17.70;99.90;;;;;;5079053;28;20045;-63
2022/05/21 08:49:58;;;;;;;12.38;4.43;;;17.90;99.90;;;;;;5077919;28;20044;-63
2022/05/21 08:53:03;;;;;;;7.80;3.50;;;18.00;99.90;;;;;;5079978;28;20044;-63
2022/05/21 08:55:32;;;;;;;11.93;4.70;;;18.20;99.90;;;;;;5096456;28;20123;-63
2022/05/21 08:58:07;;;;;;;9.90;4.40;;;18.30;99.90;;;;;;5078129;28;20387;-63
2022/05/21 09:00:41;;;;;;;11.05;4.90;;;18.50;99.90;;;;;;5078710;28;20047;-63
2022/05/21 09:03:09;;;;;;;26.77;18.60;;;18.70;99.90;;;;;;5078141;28;20044;-61
2022/05/21 09:05:36;;;;;;;25.02;17.90;;;18.70;99.90;;;;;;5094972;28;20050;-66
2022/05/21 09:08:27;;;;;;;48.10;38.90;;;18.70;99.90;;;;;;5078472;28;20059;-66
2022/05/21 09:10:54;;;;;;;18.38;9.82;;;18.60;99.90;;;;;;5095215;28;20046;-64
2022/05/21 09:13:42;;;;;;;17.15;6.85;;;18.70;99.90;;;;;;5096174;28;20118;-62
2022/05/21 09:18:56;;;;;;;11.60;5.20;;;19.00;99.90;;;;;;5095473;28;20337;-63
2022/05/21 09:21:25;;;;;;;7.93;4.40;;;19.10;99.90;;;;;;5096003;28;20127;-68
2022/05/21 09:23:53;;;;;;;10.80;4.13;;;19.00;99.90;;;;;;5094278;28;20150;-61
2022/05/21 09:26:21;;;;;;;10.38;4.38;;;19.00;99.90;;;;;;5094696;28;20043;-66
2022/05/21 09:28:49;;;;;;;22.83;13.80;;;19.10;99.90;;;;;;5078112;28;20040;-62
2022/05/21 09:31:30;;;;;;;8.80;4.25;;;19.20;99.90;;;;;;5077062;28;20125;-63
2022/05/21 09:34:30;;;;;;;12.88;7.35;;;19.30;98.60;;;;;;5094712;28;20462;-60
2022/05/21 09:36:57;;;;;;;28.10;17.92;;;19.30;99.90;;;;;;5095196;28;20489;-62
2022/05/21 09:39:28;;;;;;;9.82;4.85;;;19.40;99.90;;;;;;5060400;28;20048;-63
2022/05/21 09:45:22;;;;;;;7.93;4.00;;;19.70;96.20;;;;;;5092858;28;20044;-62
2022/05/21 09:47:53;;;;;;;7.80;2.85;;;20.00;99.50;;;;;;5093647;28;20047;-64
2022/05/21 09:50:23;;;;;;;7.95;3.47;;;20.10;96.60;;;;;;5095395;28;20128;-64
2022/05/21 09:52:51;;;;;;;6.63;2.83;;;20.10;90.20;;;;;;5093295;28;20051;-63
2022/05/21 09:55:22;;;;;;;7.18;2.50;;;20.10;89.40;;;;;;5060049;28;20043;-62
2022/05/21 09:57:55;;;;;;;8.10;2.70;;;20.20;93.00;;;;;;5094603;28;20089;-64
2022/05/21 10:00:30;;;;;;;6.70;2.40;;;20.40;91.30;;;;;;5076548;28;20047;-68
2022/05/21 10:02:59;;;;;;;10.85;2.53;;;20.60;88.70;;;;;;5094449;28;20048;-64
2022/05/21 10:05:35;;;;;;;4.88;2.30;;;20.60;90.30;;;;;;5093407;28;20040;-68
2022/05/21 10:11:08;;;;;;;8.55;3.67;;;21.00;88.80;;;;;;5095106;28;20352;-64
2022/05/21 10:13:43;;;;;;;11.02;2.40;;;21.20;88.30;;;;;;5077094;28;20036;-69
2022/05/21 10:16:48;;;;;;;8.73;2.88;;;21.10;86.10;;;;;;5076832;28;20046;-66
2022/05/21 10:19:40;;;;;;;5.35;2.35;;;21.10;81.00;;;;;;5094353;28;20040;-65
2022/05/21 10:22:45;;;;;;;6.00;1.98;;;21.00;80.00;;;;;;5093791;28;20047;-64
2022/05/21 10:25:20;;;;;;;7.32;2.45;;;21.10;79.70;;;;;;5094231;28;20313;-64
2022/05/21 10:28:19;;;;;;;6.43;2.38;;;21.00;80.00;;;;;;5093439;28;20097;-65
2022/05/21 10:30:57;;;;;;;5.25;2.00;;;21.10;77.90;;;;;;5085853;28;20048;-63
2022/05/21 10:33:55;;;;;;;10.70;2.83;;;21.10;76.50;;;;;;5093033;28;20052;-65
2022/05/21 10:36:53;;;;;;;12.82;3.97;;;21.00;76.30;;;;;;5077632;28;20058;-66
2022/05/21 10:39:24;;;;;;;6.87;2.33;;;21.00;74.50;;;;;;5094048;28;20036;-65
2022/05/21 10:42:27;;;;;;;10.20;2.80;;;20.90;80.90;;;;;;5093434;28;20044;-65
2022/05/21 10:45:25;;;;;;;12.90;5.68;;;20.90;77.90;;;;;;5088889;28;20471;-66
2022/05/21 10:48:06;;;;;;;7.68;2.67;;;20.80;76.00;;;;;;5092414;28;20450;-64
2022/05/21 10:50:54;;;;;;;7.32;2.38;;;20.60;74.90;;;;;;5094500;28;20040;-62
2022/05/21 10:53:27;;;;;;;10.00;2.75;;;20.60;79.20;;;;;;5092378;28;20533;-70
2022/05/21 10:56:22;;;;;;;7.13;2.30;;;20.70;81.30;;;;;;5093182;28;20051;-65
2022/05/21 10:59:00;;;;;;;9.50;2.58;;;20.80;75.40;;;;;;5093935;28;20048;-65
2022/05/21 11:01:40;;;;;;;5.40;2.10;;;20.80;76.80;;;;;;5093361;28;20050;-66
2022/05/21 11:04:20;;;;;;;7.35;2.78;;;20.80;79.00;;;;;;5075815;28;20052;-64
2022/05/21 11:07:09;;;;;;;7.05;2.28;;;20.80;75.20;;;;;;5092526;28;20051;-67
2022/05/21 11:09:42;;;;;;;;;;;20.70;76.20;;;;;;5093696;28;20047;-67
2022/05/21 11:12:20;;;;;;;11.30;6.50;;;20.70;75.20;;;;;;5092157;28;20312;-68
2022/05/21 11:14:56;;;;;;;8.40;3.37;;;20.60;72.70;;;;;;5093323;28;20048;-66
2022/05/21 11:17:40;;;;;;;5.40;2.33;;;20.60;74.50;;;;;;5093227;28;20046;-65
2022/05/21 11:20:35;;;;;;;6.30;2.60;;;20.50;77.50;;;;;;5092021;28;20044;-67
2022/05/21 11:23:24;;;;;;;5.18;2.50;;;20.40;70.40;;;;;;5077793;28;20036;-68
2022/05/21 11:25:55;;;;;;;;;;;20.30;73.90;;;;;;5092385;28;20439;-68
2022/05/21 11:29:09;;;;;;;9.15;2.95;;;20.40;73.70;;;;;;5076039;28;20363;-67
2022/05/21 11:37:37;;;;;;;9.95;3.28;;;20.30;74.00;;;;;;5078550;28;20047;-66
2022/05/21 11:40:06;;;;;;;;;;;20.40;73.50;;;;;;5092251;28;20476;-67
2022/05/21 11:42:34;;;;;;;11.35;2.50;;;20.40;72.50;;;;;;5092684;28;19932;-67
2022/05/21 11:45:14;;;;;;;11.68;2.95;;;20.40;73.20;;;;;;5092956;28;20040;-65
2022/05/21 11:47:54;;;;;;;7.75;2.47;;;20.80;72.70;;;;;;5091676;28;20051;-66
2022/05/21 11:50:22;;;;;;;5.05;1.77;;;20.90;70.50;;;;;;5094125;28;20051;-65
2022/05/21 11:52:53;;;;;;;6.53;1.80;;;21.00;71.20;;;;;;5093202;28;20051;-66
2022/05/21 11:55:22;;;;;;;5.53;3.10;;;21.10;71.50;;;;;;5091545;28;20040;-64
2022/05/21 11:58:00;;;;;;;7.43;3.70;;;21.30;70.40;;;;;;5092826;28;20054;-64
2022/05/21 12:00:26;;;;;;;8.63;5.53;;;21.30;69.80;;;;;;5092785;28;20040;-71
2022/05/21 12:02:53;;;;;;;6.20;2.92;;;21.40;68.30;;;;;;5093529;28;20070;-69
2022/05/21 12:05:41;;;;;;;9.50;2.60;;;21.40;68.50;;;;;;5092822;28;20039;-71
2022/05/21 12:08:11;;;;;;;6.00;2.28;;;21.50;69.70;;;;;;5090156;28;20369;-65
2022/05/21 12:10:58;;;;;;;5.70;2.00;;;21.60;68.50;;;;;;5096923;28;20044;-67
2022/05/21 12:13:34;;;;;;;5.60;2.22;;;21.80;69.40;;;;;;5097713;28;20044;-70
2022/05/21 12:16:17;;;;;;;7.32;2.47;;;21.90;66.90;;;;;;5096655;28;20218;-65
2022/05/21 12:18:46;;;;;;;4.30;1.83;;;21.80;68.70;;;;;;5096712;28;20044;-66
2022/05/21 12:21:36;;;;;;;8.23;2.50;;;21.90;67.50;;;;;;5097278;28;20425;-69
2022/05/21 12:24:05;;;;;;;6.07;1.85;;;22.00;65.90;;;;;;5096427;28;20449;-68
2022/05/21 12:26:35;;;;;;;6.00;1.80;;;22.10;68.10;;;;;;5095032;28;20420;-67
2022/05/21 12:29:15;;;;;;;27.05;21.15;;;22.10;68.70;;;;;;5096126;28;20054;-67
2022/05/21 12:31:56;;;;;;;13.23;9.30;;;22.20;67.50;;;;;;5079363;28;20047;-67
2022/05/21 12:34:59;;;;;;;7.10;3.58;;;22.10;64.60;;;;;;5078449;28;20048;-67
2022/05/21 12:37:35;;;;;;;4.63;2.92;;;22.10;66.30;;;;;;5096023;28;20363;-67
2022/05/21 12:40:32;;;;;;;7.03;2.20;;;22.00;65.70;;;;;;5094880;28;20394;-67
2022/05/21 12:43:07;;;;;;;6.07;2.20;;;22.10;68.30;;;;;;5096079;28;20082;-69
2022/05/21 12:45:42;;;;;;;5.57;2.38;;;22.00;66.70;;;;;;5095832;28;20047;-66
2022/05/21 12:48:12;;;;;;;19.88;3.58;;;22.00;66.00;;;;;;5095806;28;20044;-66
2022/05/21 12:50:49;;;;;;;8.27;2.72;;;21.90;68.10;;;;;;5096129;28;20040;-66
2022/05/21 12:53:39;;;;;;;7.38;2.38;;;21.90;65.40;;;;;;5077955;28;20546;-66
2022/05/21 12:56:19;;;;;;;5.45;1.90;;;21.70;63.70;;;;;;5095423;28;20053;-66
2022/05/21 12:58:46;;;;;;;8.18;2.53;;;21.70;65.30;;;;;;5094754;28;20040;-66
2022/05/21 13:01:23;;;;;;;10.35;2.75;;;21.60;65.60;;;;;;5095941;28;20040;-66
2022/05/21 13:03:50;;;;;;;5.10;2.30;;;21.60;66.40;;;;;;5095346;28;20040;-66
2022/05/21 13:06:22;;;;;;;6.88;1.65;;;21.60;65.60;;;;;;5094276;28;20044;-66
2022/05/21 13:08:50;;;;;;;6.50;1.98;;;21.50;65.30;;;;;;5062365;28;20044;-65
2022/05/21 13:11:22;;;;;;;18.75;2.72;;;21.40;64.80;;;;;;5078030;28;20047;-66
2022/05/21 13:14:00;;;;;;;10.32;2.00;;;21.40;66.20;;;;;;5095247;28;20044;-66
2022/05/21 13:16:27;;;;;;;6.57;1.77;;;21.50;65.10;;;;;;5078122;28;20044;-64
2022/05/21 13:19:06;;;;;;;7.30;2.30;;;21.50;65.40;;;;;;5077483;28;20048;-66
2022/05/21 13:21:44;;;;;;;10.02;1.75;;;21.50;65.70;;;;;;5095443;28;20036;-66
2022/05/21 13:24:28;;;;;;;3.13;1.40;;;21.60;65.60;;;;;;5078573;28;20044;-66
2022/05/21 13:27:11;;;;;;;6.68;2.00;;;21.50;66.60;;;;;;5079940;28;20044;-66
2022/05/21 13:29:38;;;;;;;5.75;2.53;;;21.40;67.70;;;;;;5096016;28;20399;-63
2022/05/21 13:32:30;;;;;;;4.72;1.73;;;21.30;66.90;;;;;;5094121;28;20048;-64